Thunder radar more information blitzortung!


Radar de pluja more information rain snow radar


Visita la nostra xarxa de llocs de meteo:

Template documentation
and downloads

And another site



No particular awareness of the weather is required.    There are no Weather-warnings

Pagina Historial Weather Underground text

Diari Resum May 10, 2017 Unitats:  Tant    Imperial   Mètric
« Previous Dia
SegĂźent Dia »
Diari Setmana Mensual Anual Personalitzada
  Maxima: Minima: Media:
Temperatura: 72.7 °F /  22.6 °C 54.9 °F /  12.7 °C 64 °F /  17.8 °C
Punt de rosada: 54.1 °F /  12.3 °C 48.2 °F /  9.0 °C 52 °F /  11.1 °C
Humitat: 82 % 49 % 66 %
Wind Speed: 13.2 mph /  21.2 km/h - 5.8 mph /  9.3 km/h
RĂ fegues de vent: 13.2 mph /  21.2 km/h - -
Vent:- - East
Pression baro: 29.8 in /  1009.0 hPa 29.6 in /  1001.9 hPa -
Precipitacions: 0 in /  0.0 mm    
Historical Graphs
 
 
Dades de taula per May 10, 2017
Temps Temperatura Punt de rosada Pression baro Vent Wind Speed RĂ fegues de vent Humitat Rainfall Rate (Hourly)
00:00 56.3 °F /  13.5 °C 50.5 °F /  10.3 °C 29.7 in /  1006.0 hPa NE 1 mph /  1.6 km/h 2 mph /  3.2 km/h 81 % 0 in /  0.0 mm
00:04 59.9 °F /  15.5 °C 52.3 °F /  11.3 °C 29.8 in /  1009.0 hPa ENE 2.6 mph /  4.2 km/h 2.6 mph /  4.2 km/h 76 % 0 in /  0.0 mm
00:10 56.1 °F /  13.4 °C 50.4 °F /  10.2 °C 29.7 in /  1006.0 hPa NE 1 mph /  1.6 km/h 2 mph /  3.2 km/h 81 % 0 in /  0.0 mm
00:20 55.9 °F /  13.3 °C 50.2 °F /  10.1 °C 29.7 in /  1006.0 hPa Calm   1 mph /  1.6 km/h 81 % 0 in /  0.0 mm
00:30 55.8 °F /  13.2 °C 50 °F /  10.0 °C 29.7 in /  1006.0 hPa Calm   2 mph /  3.2 km/h 81 % 0 in /  0.0 mm
00:40 55.6 °F /  13.1 °C 49.8 °F /  9.9 °C 29.7 in /  1006.0 hPa WNW 1 mph /  1.6 km/h 2 mph /  3.2 km/h 81 % 0 in /  0.0 mm
00:50 55.4 °F /  13.0 °C 49.6 °F /  9.8 °C 29.7 in /  1006.0 hPa Calm   3 mph /  4.8 km/h 81 % 0 in /  0.0 mm
01:00 55.2 °F /  12.9 °C 49.5 °F /  9.7 °C 29.7 in /  1006.0 hPa Calm   2 mph /  3.2 km/h 81 % 0 in /  0.0 mm
01:10 55.4 °F /  13.0 °C 49.6 °F /  9.8 °C 29.7 in /  1006.0 hPa Calm   1 mph /  1.6 km/h 81 % 0 in /  0.0 mm
01:20 55.4 °F /  13.0 °C 49.6 °F /  9.8 °C 29.7 in /  1006.0 hPa Calm   1 mph /  1.6 km/h 81 % 0 in /  0.0 mm
01:30 55.4 °F /  13.0 °C 50 °F /  10.0 °C 29.7 in /  1006.0 hPa Calm   2 mph /  3.2 km/h 82 % 0 in /  0.0 mm
01:40 54.9 °F /  12.7 °C 49.5 °F /  9.7 °C 29.7 in /  1006.0 hPa Calm   1 mph /  1.6 km/h 82 % 0 in /  0.0 mm
01:50 55 °F /  12.8 °C 49.6 °F /  9.8 °C 29.7 in /  1006.0 hPa Calm     82 % 0 in /  0.0 mm
02:00 55.2 °F /  12.9 °C 49.8 °F /  9.9 °C 29.7 in /  1006.0 hPa NNW 2 mph /  3.2 km/h 2 mph /  3.2 km/h 82 % 0 in /  0.0 mm
02:10 55 °F /  12.8 °C 49.6 °F /  9.8 °C 29.7 in /  1006.0 hPa NNE 1 mph /  1.6 km/h 3 mph /  4.8 km/h 82 % 0 in /  0.0 mm
02:20 55 °F /  12.8 °C 49.6 °F /  9.8 °C 29.7 in /  1006.0 hPa Calm   2 mph /  3.2 km/h 82 % 0 in /  0.0 mm
02:30 55.4 °F /  13.0 °C 49.3 °F /  9.6 °C 29.7 in /  1006.0 hPa NNE 1 mph /  1.6 km/h 4 mph /  6.4 km/h 80 % 0 in /  0.0 mm
02:40 55.6 °F /  13.1 °C 49.3 °F /  9.6 °C 29.7 in /  1005.0 hPa NNE 3 mph /  4.8 km/h 4 mph /  6.4 km/h 79 % 0 in /  0.0 mm
02:50 55.8 °F /  13.2 °C 48.9 °F /  9.4 °C 29.7 in /  1006.0 hPa NNE 3 mph /  4.8 km/h 6 mph /  9.7 km/h 78 % 0 in /  0.0 mm
03:00 56.1 °F /  13.4 °C 48.9 °F /  9.4 °C 29.7 in /  1006.0 hPa NE 3 mph /  4.8 km/h 4 mph /  6.4 km/h 77 % 0 in /  0.0 mm
03:10 56.7 °F /  13.7 °C 49.3 °F /  9.6 °C 29.7 in /  1006.0 hPa NE 3 mph /  4.8 km/h 4 mph /  6.4 km/h 76 % 0 in /  0.0 mm
03:20 56.8 °F /  13.8 °C 49.5 °F /  9.7 °C 29.7 in /  1007.0 hPa NNE 2 mph /  3.2 km/h 4 mph /  6.4 km/h 76 % 0 in /  0.0 mm
03:30 57 °F /  13.9 °C 49.3 °F /  9.6 °C 29.7 in /  1007.0 hPa NNE 3 mph /  4.8 km/h 4 mph /  6.4 km/h 75 % 0 in /  0.0 mm
03:40 57.4 °F /  14.1 °C 49.3 °F /  9.6 °C 29.7 in /  1006.0 hPa NNE 1 mph /  1.6 km/h 5 mph /  8.0 km/h 74 % 0 in /  0.0 mm
03:50 57.6 °F /  14.2 °C 48.9 °F /  9.4 °C 29.7 in /  1006.0 hPa NNE 1 mph /  1.6 km/h 4 mph /  6.4 km/h 73 % 0 in /  0.0 mm
04:00 57.7 °F /  14.3 °C 48.7 °F /  9.3 °C 29.7 in /  1006.0 hPa NE 3 mph /  4.8 km/h 5 mph /  8.0 km/h 72 % 0 in /  0.0 mm
04:10 57.9 °F /  14.4 °C 48.2 °F /  9.0 °C 29.7 in /  1007.0 hPa NNE 5 mph /  8.0 km/h 6 mph /  9.7 km/h 70 % 0 in /  0.0 mm
04:20 58.5 °F /  14.7 °C 48.7 °F /  9.3 °C 29.7 in /  1006.0 hPa NE 2 mph /  3.2 km/h 3 mph /  4.8 km/h 70 % 0 in /  0.0 mm
04:30 58.6 °F /  14.8 °C 48.9 °F /  9.4 °C 29.7 in /  1006.0 hPa NE 2 mph /  3.2 km/h 6 mph /  9.7 km/h 70 % 0 in /  0.0 mm
04:40 59.2 °F /  15.1 °C 48.9 °F /  9.4 °C 29.7 in /  1006.0 hPa NE 3 mph /  4.8 km/h 3 mph /  4.8 km/h 69 % 0 in /  0.0 mm
04:50 59.7 °F /  15.4 °C 49.1 °F /  9.5 °C 29.7 in /  1007.0 hPa NNE 2 mph /  3.2 km/h 4 mph /  6.4 km/h 68 % 0 in /  0.0 mm
05:00 60.1 °F /  15.6 °C 49.1 °F /  9.5 °C 29.7 in /  1007.0 hPa NNE 3 mph /  4.8 km/h 4 mph /  6.4 km/h 67 % 0 in /  0.0 mm
05:10 60.1 °F /  15.6 °C 48.7 °F /  9.3 °C 29.7 in /  1006.0 hPa NNE 3 mph /  4.8 km/h 6 mph /  9.7 km/h 66 % 0 in /  0.0 mm
05:20 60.6 °F /  15.9 °C 49.3 °F /  9.6 °C 29.7 in /  1007.0 hPa NE 1 mph /  1.6 km/h 4 mph /  6.4 km/h 66 % 0 in /  0.0 mm
10:30 61.3 °F /  16.3 °C 49.5 °F /  9.7 °C 29.7 in /  1007.0 hPa North 2.3 mph /  3.7 km/h 2.3 mph /  3.7 km/h 65 % 0 in /  0.0 mm
10:35 61.5 °F /  16.4 °C 49.3 °F /  9.6 °C 29.7 in /  1007.0 hPa ENE 3.5 mph /  5.6 km/h 3.5 mph /  5.6 km/h 64 % 0 in /  0.0 mm
10:40 61.7 °F /  16.5 °C 49.5 °F /  9.7 °C 29.7 in /  1007.0 hPa NNE 2.6 mph /  4.2 km/h 2.6 mph /  4.2 km/h 64 % 0 in /  0.0 mm
10:45 61.9 °F /  16.6 °C 49.1 °F /  9.5 °C 29.7 in /  1007.0 hPa NNW 2.2 mph /  3.5 km/h 2.2 mph /  3.5 km/h 63 % 0 in /  0.0 mm
10:50 62.2 °F /  16.8 °C 49.8 °F /  9.9 °C 29.7 in /  1007.0 hPa NNE 2.3 mph /  3.7 km/h 2.3 mph /  3.7 km/h 64 % 0 in /  0.0 mm
10:55 62.1 °F /  16.7 °C 49.3 °F /  9.6 °C 29.7 in /  1007.0 hPa NNE 2.6 mph /  4.2 km/h 2.6 mph /  4.2 km/h 63 % 0 in /  0.0 mm
11:00 62.2 °F /  16.8 °C 49.8 °F /  9.9 °C 29.7 in /  1007.0 hPa NE 2.3 mph /  3.7 km/h 2.3 mph /  3.7 km/h 64 % 0 in /  0.0 mm
11:05 62.4 °F /  16.9 °C 49.6 °F /  9.8 °C 29.7 in /  1007.0 hPa NE 2.9 mph /  4.7 km/h 2.9 mph /  4.7 km/h 63 % 0 in /  0.0 mm
11:06 62.4 °F /  16.9 °C 49.6 °F /  9.8 °C 29.7 in /  1007.0 hPa NE 2.9 mph /  4.7 km/h 2.9 mph /  4.7 km/h 63 % 0 in /  0.0 mm
11:11 62.2 °F /  16.8 °C 49.1 °F /  9.5 °C 29.7 in /  1006.0 hPa East 3.5 mph /  5.6 km/h 3.5 mph /  5.6 km/h 62 % 0 in /  0.0 mm
11:16 62.8 °F /  17.1 °C 49.6 °F /  9.8 °C 29.7 in /  1006.0 hPa NE 2.4 mph /  3.9 km/h 2.4 mph /  3.9 km/h 62 % 0 in /  0.0 mm
11:21 63.1 °F /  17.3 °C 49.5 °F /  9.7 °C 29.7 in /  1006.0 hPa North 1.2 mph /  1.9 km/h 1.2 mph /  1.9 km/h 61 % 0 in /  0.0 mm
11:26 63.5 °F /  17.5 °C 50.2 °F /  10.1 °C 29.7 in /  1007.0 hPa Calm     62 % 0 in /  0.0 mm
11:31 63.5 °F /  17.5 °C 49.5 °F /  9.7 °C 29.7 in /  1007.0 hPa ENE 3.5 mph /  5.6 km/h 3.5 mph /  5.6 km/h 60 % 0 in /  0.0 mm
11:36 63.7 °F /  17.6 °C 50 °F /  10.0 °C 29.7 in /  1007.0 hPa East 1.2 mph /  1.9 km/h 1.2 mph /  1.9 km/h 61 % 0 in /  0.0 mm
11:41 64.2 °F /  17.9 °C 50.5 °F /  10.3 °C 29.7 in /  1007.0 hPa ENE 1.4 mph /  2.3 km/h 1.6 mph /  2.6 km/h 61 % 0 in /  0.0 mm
11:46 64.8 °F /  18.2 °C 50.5 °F /  10.3 °C 29.7 in /  1007.0 hPa NNE 2.2 mph /  3.5 km/h   60 % 0 in /  0.0 mm
11:51 65.5 °F /  18.6 °C 50.7 °F /  10.4 °C 29.7 in /  1007.0 hPa ENE 3.5 mph /  5.6 km/h 3.5 mph /  5.6 km/h 59 % 0 in /  0.0 mm
11:56 65.3 °F /  18.5 °C 50.5 °F /  10.3 °C 29.7 in /  1007.0 hPa ENE 2.4 mph /  3.9 km/h 2.4 mph /  3.9 km/h 59 % 0 in /  0.0 mm
12:01 66.2 °F /  19.0 °C 51.1 °F /  10.6 °C 29.7 in /  1007.0 hPa East 2.3 mph /  3.7 km/h 2.3 mph /  3.7 km/h 58 % 0 in /  0.0 mm
12:06 66.7 °F /  19.3 °C 50.5 °F /  10.3 °C 29.7 in /  1007.0 hPa ENE 2.3 mph /  3.7 km/h 2.3 mph /  3.7 km/h 56 % 0 in /  0.0 mm
12:11 67.8 °F /  19.9 °C 52 °F /  11.1 °C 29.7 in /  1006.0 hPa ENE 3.5 mph /  5.6 km/h 3.5 mph /  5.6 km/h 57 % 0 in /  0.0 mm
12:16 68.4 °F /  20.2 °C 51.6 °F /  10.9 °C 29.7 in /  1006.0 hPa ENE 3.6 mph /  5.8 km/h 3.8 mph /  6.1 km/h 55 % 0 in /  0.0 mm
12:21 68.5 °F /  20.3 °C 51.3 °F /  10.7 °C 29.7 in /  1006.0 hPa SE 4 mph /  6.4 km/h 4 mph /  6.4 km/h 54 % 0 in /  0.0 mm
12:26 69.1 °F /  20.6 °C 51.3 °F /  10.7 °C 29.7 in /  1006.0 hPa ENE 2.3 mph /  3.7 km/h 2.3 mph /  3.7 km/h 53 % 0 in /  0.0 mm
12:31 68.2 °F /  20.1 °C 49.5 °F /  9.7 °C 29.7 in /  1006.0 hPa SE 6.9 mph /  11.1 km/h 6.9 mph /  11.1 km/h 51 % 0 in /  0.0 mm
12:36 68.9 °F /  20.5 °C 50.5 °F /  10.3 °C 29.7 in /  1006.0 hPa Calm     52 % 0 in /  0.0 mm
12:41 70.2 °F /  21.2 °C 51.3 °F /  10.7 °C 29.7 in /  1006.0 hPa NE 4.3 mph /  6.9 km/h 4.3 mph /  6.9 km/h 51 % 0 in /  0.0 mm
12:46 70.9 °F /  21.6 °C 51.8 °F /  11.0 °C 29.7 in /  1006.0 hPa SE 5.6 mph /  9.0 km/h 5.6 mph /  9.0 km/h 51 % 0 in /  0.0 mm
12:51 70 °F /  21.1 °C 51.1 °F /  10.6 °C 29.7 in /  1006.0 hPa SSE 6.9 mph /  11.1 km/h 6.9 mph /  11.1 km/h 51 % 0 in /  0.0 mm
12:56 70.2 °F /  21.2 °C 51.6 °F /  10.9 °C 29.7 in /  1006.0 hPa ESE 4.3 mph /  6.9 km/h 4.3 mph /  6.9 km/h 52 % 0 in /  0.0 mm
13:01 70.2 °F /  21.2 °C 51.3 °F /  10.7 °C 29.7 in /  1006.0 hPa East 5.8 mph /  9.3 km/h 5.8 mph /  9.3 km/h 51 % 0 in /  0.0 mm
13:06 69.8 °F /  21.0 °C 50.9 °F /  10.5 °C 29.7 in /  1006.0 hPa ENE 5.8 mph /  9.3 km/h 5.8 mph /  9.3 km/h 51 % 0 in /  0.0 mm
13:11 70 °F /  21.1 °C 51.1 °F /  10.6 °C 29.7 in /  1006.0 hPa East 5.8 mph /  9.3 km/h 5.8 mph /  9.3 km/h 51 % 0 in /  0.0 mm
13:16 70.9 °F /  21.6 °C 51.8 °F /  11.0 °C 29.7 in /  1006.0 hPa SE 6.9 mph /  11.1 km/h 6.9 mph /  11.1 km/h 51 % 0 in /  0.0 mm
13:21 70.7 °F /  21.5 °C 51.1 °F /  10.6 °C 29.7 in /  1006.0 hPa ESE 8.1 mph /  13.0 km/h 8.1 mph /  13.0 km/h 50 % 0 in /  0.0 mm
13:26 70.7 °F /  21.5 °C 51.1 °F /  10.6 °C 29.7 in /  1006.0 hPa ESE 7.1 mph /  11.4 km/h 7.1 mph /  11.4 km/h 50 % 0 in /  0.0 mm
13:31 70.7 °F /  21.5 °C 51.1 °F /  10.6 °C 29.7 in /  1006.0 hPa East 4.6 mph /  7.4 km/h 4.6 mph /  7.4 km/h 50 % 0 in /  0.0 mm
13:36 71.8 °F /  22.1 °C 52.2 °F /  11.2 °C 29.7 in /  1006.0 hPa NNE 9.2 mph /  14.8 km/h 9.2 mph /  14.8 km/h 50 % 0 in /  0.0 mm
13:41 72 °F /  22.2 °C 52.9 °F /  11.6 °C 29.7 in /  1006.0 hPa ESE 6 mph /  9.7 km/h 6 mph /  9.7 km/h 51 % 0 in /  0.0 mm
13:46 71.1 °F /  21.7 °C 50.9 °F /  10.5 °C 29.7 in /  1006.0 hPa ENE 10.4 mph /  16.7 km/h 10.4 mph /  16.7 km/h 49 % 0 in /  0.0 mm
13:51 70.9 °F /  21.6 °C 50.7 °F /  10.4 °C 29.7 in /  1006.0 hPa ESE 12.7 mph /  20.4 km/h 12.7 mph /  20.4 km/h 49 % 0 in /  0.0 mm
13:56 70.9 °F /  21.6 °C 51.3 °F /  10.7 °C 29.7 in /  1006.0 hPa ESE 10.4 mph /  16.7 km/h 10.4 mph /  16.7 km/h 50 % 0 in /  0.0 mm
14:01 72.1 °F /  22.3 °C 53.1 °F /  11.7 °C 29.7 in /  1006.0 hPa East 10 mph /  16.1 km/h 10 mph /  16.1 km/h 51 % 0 in /  0.0 mm
14:06 72.1 °F /  22.3 °C 52.5 °F /  11.4 °C 29.7 in /  1006.0 hPa SE 8.1 mph /  13.0 km/h 8.1 mph /  13.0 km/h 50 % 0 in /  0.0 mm
14:11 72.7 °F /  22.6 °C 53.4 °F /  11.9 °C 29.7 in /  1006.0 hPa ESE 5.8 mph /  9.3 km/h 5.8 mph /  9.3 km/h 51 % 0 in /  0.0 mm
14:16 71.2 °F /  21.8 °C 52.2 °F /  11.2 °C 29.7 in /  1006.0 hPa East 10.4 mph /  16.7 km/h 10.4 mph /  16.7 km/h 51 % 0 in /  0.0 mm
14:21 71.2 °F /  21.8 °C 52.2 °F /  11.2 °C 29.7 in /  1006.0 hPa ESE 10.4 mph /  16.7 km/h 10.4 mph /  16.7 km/h 51 % 0 in /  0.0 mm
14:26 71.4 °F /  21.9 °C 52.3 °F /  11.3 °C 29.7 in /  1005.0 hPa SE 8.1 mph /  13.0 km/h 8.1 mph /  13.0 km/h 51 % 0 in /  0.0 mm
14:31 70.9 °F /  21.6 °C 51.8 °F /  11.0 °C 29.7 in /  1005.0 hPa ESE 10.4 mph /  16.7 km/h 10.4 mph /  16.7 km/h 51 % 0 in /  0.0 mm
14:36 70.3 °F /  21.3 °C 51.3 °F /  10.7 °C 29.7 in /  1005.0 hPa ESE 10.4 mph /  16.7 km/h 10.4 mph /  16.7 km/h 51 % 0 in /  0.0 mm
14:41 70 °F /  21.1 °C 51.1 °F /  10.6 °C 29.6 in /  1003.9 hPa ENE 8.1 mph /  13.0 km/h 8.1 mph /  13.0 km/h 51 % 0 in /  0.0 mm
14:46 70 °F /  21.1 °C 51.4 °F /  10.8 °C 29.6 in /  1003.9 hPa East 12.7 mph /  20.4 km/h 12.7 mph /  20.4 km/h 52 % 0 in /  0.0 mm
14:51 69.8 °F /  21.0 °C 51.4 °F /  10.8 °C 29.6 in /  1003.9 hPa East 10.4 mph /  16.7 km/h 10.4 mph /  16.7 km/h 52 % 0 in /  0.0 mm
14:56 70.5 °F /  21.4 °C 52 °F /  11.1 °C 29.7 in /  1005.0 hPa ESE 10.4 mph /  16.7 km/h 10.4 mph /  16.7 km/h 52 % 0 in /  0.0 mm
15:01 70.9 °F /  21.6 °C 52.3 °F /  11.3 °C 29.7 in /  1005.0 hPa ESE 9.7 mph /  15.6 km/h 9.7 mph /  15.6 km/h 52 % 0 in /  0.0 mm
15:06 70.3 °F /  21.3 °C 52 °F /  11.1 °C 29.7 in /  1005.0 hPa ESE 9.2 mph /  14.8 km/h 9.2 mph /  14.8 km/h 52 % 0 in /  0.0 mm
15:11 70.2 °F /  21.2 °C 52.2 °F /  11.2 °C 29.7 in /  1005.0 hPa ESE 5.8 mph /  9.3 km/h 5.8 mph /  9.3 km/h 53 % 0 in /  0.0 mm
15:16 70.2 °F /  21.2 °C 51.6 °F /  10.9 °C 29.7 in /  1005.0 hPa East 9.2 mph /  14.8 km/h 9.2 mph /  14.8 km/h 52 % 0 in /  0.0 mm
15:21 70.3 °F /  21.3 °C 52 °F /  11.1 °C 29.7 in /  1005.0 hPa East 10.4 mph /  16.7 km/h 10.4 mph /  16.7 km/h 52 % 0 in /  0.0 mm
15:26 70.3 °F /  21.3 °C 52.3 °F /  11.3 °C 29.6 in /  1003.9 hPa ESE 9.2 mph /  14.8 km/h 9.2 mph /  14.8 km/h 53 % 0 in /  0.0 mm
15:31 70.2 °F /  21.2 °C 52.2 °F /  11.2 °C 29.6 in /  1003.9 hPa ESE 11.5 mph /  18.5 km/h 11.5 mph /  18.5 km/h 53 % 0 in /  0.0 mm
15:36 70.5 °F /  21.4 °C 52.5 °F /  11.4 °C 29.6 in /  1003.9 hPa ESE 10.9 mph /  17.5 km/h 10.9 mph /  17.5 km/h 53 % 0 in /  0.0 mm
15:41 70.3 °F /  21.3 °C 52.9 °F /  11.6 °C 29.6 in /  1003.9 hPa ESE 8.1 mph /  13.0 km/h 8.1 mph /  13.0 km/h 54 % 0 in /  0.0 mm
15:46 70.2 °F /  21.2 °C 52.2 °F /  11.2 °C 29.6 in /  1003.9 hPa ESE 11.5 mph /  18.5 km/h 11.5 mph /  18.5 km/h 53 % 0 in /  0.0 mm
15:51 70.3 °F /  21.3 °C 52 °F /  11.1 °C 29.6 in /  1003.9 hPa ENE 10.4 mph /  16.7 km/h 10.4 mph /  16.7 km/h 52 % 0 in /  0.0 mm
15:56 70.7 °F /  21.5 °C 52.2 °F /  11.2 °C 29.6 in /  1003.9 hPa ENE 10.4 mph /  16.7 km/h 10.4 mph /  16.7 km/h 52 % 0 in /  0.0 mm
16:01 70.3 °F /  21.3 °C 52 °F /  11.1 °C 29.6 in /  1003.9 hPa SE 10.2 mph /  16.4 km/h 10.2 mph /  16.4 km/h 52 % 0 in /  0.0 mm
16:06 70.3 °F /  21.3 °C 51.3 °F /  10.7 °C 29.6 in /  1003.9 hPa ESE 9.2 mph /  14.8 km/h 9.2 mph /  14.8 km/h 51 % 0 in /  0.0 mm
16:11 70.5 °F /  21.4 °C 52 °F /  11.1 °C 29.6 in /  1003.9 hPa ESE 9.2 mph /  14.8 km/h 9.2 mph /  14.8 km/h 52 % 0 in /  0.0 mm
16:16 70.2 °F /  21.2 °C 51.6 °F /  10.9 °C 29.6 in /  1003.9 hPa ENE 11.5 mph /  18.5 km/h 11.5 mph /  18.5 km/h 52 % 0 in /  0.0 mm
16:21 69.8 °F /  21.0 °C 51.4 °F /  10.8 °C 29.6 in /  1003.9 hPa ESE 9.2 mph /  14.8 km/h 9.2 mph /  14.8 km/h 52 % 0 in /  0.0 mm
16:26 70 °F /  21.1 °C 52.2 °F /  11.2 °C 29.6 in /  1003.9 hPa ESE 12.7 mph /  20.4 km/h 12.7 mph /  20.4 km/h 53 % 0 in /  0.0 mm
16:31 69.8 °F /  21.0 °C 52 °F /  11.1 °C 29.6 in /  1003.9 hPa ESE 10.4 mph /  16.7 km/h 10.4 mph /  16.7 km/h 53 % 0 in /  0.0 mm
16:36 70.2 °F /  21.2 °C 52.7 °F /  11.5 °C 29.6 in /  1003.9 hPa ESE 9.2 mph /  14.8 km/h 9.2 mph /  14.8 km/h 54 % 0 in /  0.0 mm
16:41 70.2 °F /  21.2 °C 52.2 °F /  11.2 °C 29.6 in /  1003.9 hPa SSE 5.8 mph /  9.3 km/h 5.8 mph /  9.3 km/h 53 % 0 in /  0.0 mm
16:46 70 °F /  21.1 °C 52.5 °F /  11.4 °C 29.6 in /  1003.9 hPa SE 10.4 mph /  16.7 km/h 10.4 mph /  16.7 km/h 54 % 0 in /  0.0 mm
16:52 70 °F /  21.1 °C 52.5 °F /  11.4 °C 29.6 in /  1003.9 hPa ESE 12.7 mph /  20.4 km/h 12.7 mph /  20.4 km/h 54 % 0 in /  0.0 mm
16:57 69.8 °F /  21.0 °C 52.9 °F /  11.6 °C 29.6 in /  1003.9 hPa ESE 11.5 mph /  18.5 km/h 11.5 mph /  18.5 km/h 55 % 0 in /  0.0 mm
17:02 69.1 °F /  20.6 °C 52.7 °F /  11.5 °C 29.6 in /  1003.9 hPa SE 10.4 mph /  16.7 km/h 10.4 mph /  16.7 km/h 56 % 0 in /  0.0 mm
17:07 69.3 °F /  20.7 °C 53.4 °F /  11.9 °C 29.6 in /  1003.9 hPa ESE 6.9 mph /  11.1 km/h 7.4 mph /  11.9 km/h 57 % 0 in /  0.0 mm
17:12 68.7 °F /  20.4 °C 52.9 °F /  11.6 °C 29.6 in /  1003.9 hPa ESE 10.4 mph /  16.7 km/h 10.4 mph /  16.7 km/h 57 % 0 in /  0.0 mm
17:17 68.5 °F /  20.3 °C 53.2 °F /  11.8 °C 29.6 in /  1003.9 hPa SE 9.2 mph /  14.8 km/h 9.2 mph /  14.8 km/h 58 % 0 in /  0.0 mm
17:22 68.4 °F /  20.2 °C 53.1 °F /  11.7 °C 29.6 in /  1003.9 hPa ESE 13.2 mph /  21.2 km/h 13.2 mph /  21.2 km/h 58 % 0 in /  0.0 mm
17:27 68 °F /  20.0 °C 52.7 °F /  11.5 °C 29.6 in /  1003.9 hPa East 10.4 mph /  16.7 km/h 10.4 mph /  16.7 km/h 58 % 0 in /  0.0 mm
17:32 68 °F /  20.0 °C 53.1 °F /  11.7 °C 29.6 in /  1003.9 hPa East 7.8 mph /  12.6 km/h 7.8 mph /  12.6 km/h 59 % 0 in /  0.0 mm
17:37 68.4 °F /  20.2 °C 54 °F /  12.2 °C 29.6 in /  1003.9 hPa South 6.9 mph /  11.1 km/h 6.9 mph /  11.1 km/h 60 % 0 in /  0.0 mm
17:42 68.5 °F /  20.3 °C 53.6 °F /  12.0 °C 29.6 in /  1003.9 hPa East 10.4 mph /  16.7 km/h 10.4 mph /  16.7 km/h 59 % 0 in /  0.0 mm
17:47 68.2 °F /  20.1 °C 53.2 °F /  11.8 °C 29.6 in /  1003.9 hPa ESE 8.1 mph /  13.0 km/h 8.1 mph /  13.0 km/h 59 % 0 in /  0.0 mm
17:52 67.5 °F /  19.7 °C 53.1 °F /  11.7 °C 29.6 in /  1003.9 hPa ENE 11.5 mph /  18.5 km/h 11.5 mph /  18.5 km/h 60 % 0 in /  0.0 mm
17:57 67.6 °F /  19.8 °C 53.8 °F /  12.1 °C 29.6 in /  1002.9 hPa SSE 6.2 mph /  10.0 km/h 6.2 mph /  10.0 km/h 61 % 0 in /  0.0 mm
18:03 67.8 °F /  19.9 °C 54 °F /  12.2 °C 29.6 in /  1002.9 hPa ESE 10.4 mph /  16.7 km/h 10.4 mph /  16.7 km/h 61 % 0 in /  0.0 mm
18:08 67.6 °F /  19.8 °C 53.8 °F /  12.1 °C 29.6 in /  1002.9 hPa ESE 9 mph /  14.5 km/h 9 mph /  14.5 km/h 61 % 0 in /  0.0 mm
18:13 67.1 °F /  19.5 °C 53.2 °F /  11.8 °C 29.6 in /  1003.9 hPa ENE 8.1 mph /  13.0 km/h 8.1 mph /  13.0 km/h 61 % 0 in /  0.0 mm
18:18 67.3 °F /  19.6 °C 53.8 °F /  12.1 °C 29.6 in /  1003.9 hPa ESE 11.5 mph /  18.5 km/h 11.5 mph /  18.5 km/h 62 % 0 in /  0.0 mm
18:23 67.3 °F /  19.6 °C 53.8 °F /  12.1 °C 29.6 in /  1003.9 hPa ESE 6.2 mph /  10.0 km/h 6.4 mph /  10.3 km/h 62 % 0 in /  0.0 mm
18:28 66.9 °F /  19.4 °C 53.4 °F /  11.9 °C 29.6 in /  1003.9 hPa ESE 10.4 mph /  16.7 km/h 10.4 mph /  16.7 km/h 62 % 0 in /  0.0 mm
18:33 66.7 °F /  19.3 °C 53.2 °F /  11.8 °C 29.6 in /  1003.9 hPa ESE 9.2 mph /  14.8 km/h 9.2 mph /  14.8 km/h 62 % 0 in /  0.0 mm
18:38 66.4 °F /  19.1 °C 53.4 °F /  11.9 °C 29.6 in /  1003.9 hPa ESE 10.4 mph /  16.7 km/h 10.4 mph /  16.7 km/h 63 % 0 in /  0.0 mm
18:43 66.4 °F /  19.1 °C 53.4 °F /  11.9 °C 29.6 in /  1003.9 hPa ENE 8.1 mph /  13.0 km/h 8.1 mph /  13.0 km/h 63 % 0 in /  0.0 mm
18:48 66.4 °F /  19.1 °C 53.4 °F /  11.9 °C 29.6 in /  1003.9 hPa East 7.4 mph /  11.9 km/h 9 mph /  14.5 km/h 63 % 0 in /  0.0 mm
18:53 65.8 °F /  18.8 °C 53.2 °F /  11.8 °C 29.6 in /  1003.9 hPa East 9.2 mph /  14.8 km/h 9.2 mph /  14.8 km/h 64 % 0 in /  0.0 mm
18:58 65.8 °F /  18.8 °C 53.8 °F /  12.1 °C 29.6 in /  1003.9 hPa East 4.6 mph /  7.4 km/h 4.6 mph /  7.4 km/h 65 % 0 in /  0.0 mm
19:04 66 °F /  18.9 °C 54 °F /  12.2 °C 29.6 in /  1003.9 hPa East 5.8 mph /  9.3 km/h 5.8 mph /  9.3 km/h 65 % 0 in /  0.0 mm
19:09 65.7 °F /  18.7 °C 53.1 °F /  11.7 °C 29.6 in /  1003.9 hPa ESE 11.5 mph /  18.5 km/h 11.5 mph /  18.5 km/h 64 % 0 in /  0.0 mm
19:14 65.7 °F /  18.7 °C 53.1 °F /  11.7 °C 29.6 in /  1002.9 hPa SE 9.2 mph /  14.8 km/h 9.2 mph /  14.8 km/h 64 % 0 in /  0.0 mm
19:19 65.7 °F /  18.7 °C 53.1 °F /  11.7 °C 29.6 in /  1002.9 hPa ESE 8.1 mph /  13.0 km/h 8.1 mph /  13.0 km/h 64 % 0 in /  0.0 mm
19:20 60.4 °F /  15.8 °C 54.1 °F /  12.3 °C 29.6 in /  1003.9 hPa NE 2 mph /  3.2 km/h 6 mph /  9.7 km/h 80 % 0 in /  0.0 mm
19:25 65.7 °F /  18.7 °C 53.1 °F /  11.7 °C 29.6 in /  1002.9 hPa East 3 mph /  4.8 km/h 8 mph /  12.9 km/h 64 % 0 in /  0.0 mm
19:30 65.1 °F /  18.4 °C 52.2 °F /  11.2 °C 29.6 in /  1003.9 hPa East 5.8 mph /  9.3 km/h 5.8 mph /  9.3 km/h 63 % 0 in /  0.0 mm
19:35 64.9 °F /  18.3 °C 52.5 °F /  11.4 °C 29.6 in /  1003.9 hPa ENE 2 mph /  3.2 km/h 6 mph /  9.7 km/h 64 % 0 in /  0.0 mm
19:40 64.8 °F /  18.2 °C 52.3 °F /  11.3 °C 29.6 in /  1003.9 hPa NNE 7.6 mph /  12.2 km/h 7.6 mph /  12.2 km/h 64 % 0 in /  0.0 mm
19:45 64.6 °F /  18.1 °C 52.2 °F /  11.2 °C 29.6 in /  1003.9 hPa East 5.9 mph /  9.5 km/h 5.9 mph /  9.5 km/h 64 % 0 in /  0.0 mm
19:50 64.2 °F /  17.9 °C 52.2 °F /  11.2 °C 29.6 in /  1003.9 hPa ENE 4.6 mph /  7.4 km/h 4.6 mph /  7.4 km/h 65 % 0 in /  0.0 mm
19:55 64.2 °F /  17.9 °C 52.2 °F /  11.2 °C 29.6 in /  1003.9 hPa East 5 mph /  8.0 km/h 6 mph /  9.7 km/h 65 % 0 in /  0.0 mm
20:00 64 °F /  17.8 °C 52.3 °F /  11.3 °C 29.6 in /  1003.9 hPa ESE 6.9 mph /  11.1 km/h 6.9 mph /  11.1 km/h 66 % 0 in /  0.0 mm
20:05 64 °F /  17.8 °C 52.3 °F /  11.3 °C 29.6 in /  1003.9 hPa ESE 7.4 mph /  11.9 km/h 7.4 mph /  11.9 km/h 66 % 0 in /  0.0 mm
20:10 63.9 °F /  17.7 °C 52.3 °F /  11.3 °C 29.6 in /  1003.9 hPa ENE 11.5 mph /  18.5 km/h 11.5 mph /  18.5 km/h 66 % 0 in /  0.0 mm
20:15 63.7 °F /  17.6 °C 52.2 °F /  11.2 °C 29.6 in /  1003.9 hPa ENE 8.1 mph /  13.0 km/h 8.1 mph /  13.0 km/h 66 % 0 in /  0.0 mm
20:20 63.5 °F /  17.5 °C 52.3 °F /  11.3 °C 29.6 in /  1003.9 hPa ENE 8.1 mph /  13.0 km/h 8.1 mph /  13.0 km/h 67 % 0 in /  0.0 mm
20:22 63.3 °F /  17.4 °C 52.2 °F /  11.2 °C 29.6 in /  1003.9 hPa East 10.4 mph /  16.7 km/h 10.4 mph /  16.7 km/h 67 % 0 in /  0.0 mm
20:27 63.1 °F /  17.3 °C 52.9 °F /  11.6 °C 29.6 in /  1003.9 hPa East 9.2 mph /  14.8 km/h 9.2 mph /  14.8 km/h 69 % 0 in /  0.0 mm
20:30 59.9 °F /  15.5 °C 53.4 °F /  11.9 °C 29.6 in /  1003.9 hPa NE 3 mph /  4.8 km/h 6 mph /  9.7 km/h 79 % 0 in /  0.0 mm
20:32 63 °F /  17.2 °C 53.1 °F /  11.7 °C 29.6 in /  1003.9 hPa NE 8.5 mph /  13.7 km/h 8.5 mph /  13.7 km/h 70 % 0 in /  0.0 mm
20:37 62.8 °F /  17.1 °C 52.9 °F /  11.6 °C 29.6 in /  1003.9 hPa ENE 8.1 mph /  13.0 km/h 8.1 mph /  13.0 km/h 70 % 0 in /  0.0 mm
20:40 59.7 °F /  15.4 °C 53.2 °F /  11.8 °C 29.6 in /  1002.9 hPa NE 3 mph /  4.8 km/h 4 mph /  6.4 km/h 79 % 0 in /  0.0 mm
20:42 62.6 °F /  17.0 °C 53.1 °F /  11.7 °C 29.6 in /  1003.9 hPa NNE 8.1 mph /  13.0 km/h 8.1 mph /  13.0 km/h 71 % 0 in /  0.0 mm
20:47 62.6 °F /  17.0 °C 53.1 °F /  11.7 °C 29.6 in /  1003.9 hPa ENE 8.5 mph /  13.7 km/h 8.5 mph /  13.7 km/h 71 % 0 in /  0.0 mm
20:50 59.7 °F /  15.4 °C 53.2 °F /  11.8 °C 29.6 in /  1002.9 hPa NE 5 mph /  8.0 km/h 5 mph /  8.0 km/h 79 % 0 in /  0.0 mm
20:53 62.4 °F /  16.9 °C 53.2 °F /  11.8 °C 29.6 in /  1003.9 hPa NNE 5.9 mph /  9.5 km/h 5.9 mph /  9.5 km/h 72 % 0 in /  0.0 mm
20:58 62.2 °F /  16.8 °C 53.4 °F /  11.9 °C 29.6 in /  1003.9 hPa East 6.9 mph /  11.1 km/h 6.9 mph /  11.1 km/h 73 % 0 in /  0.0 mm
21:00 59.5 °F /  15.3 °C 53.1 °F /  11.7 °C 29.6 in /  1002.9 hPa NE 3 mph /  4.8 km/h 4 mph /  6.4 km/h 79 % 0 in /  0.0 mm
21:03 62.1 °F /  16.7 °C 53.2 °F /  11.8 °C 29.6 in /  1003.9 hPa North 8.1 mph /  13.0 km/h 8.1 mph /  13.0 km/h 73 % 0 in /  0.0 mm
21:08 62.1 °F /  16.7 °C 53.8 °F /  12.1 °C 29.6 in /  1003.9 hPa NNE 5.8 mph /  9.3 km/h 5.8 mph /  9.3 km/h 74 % 0 in /  0.0 mm
21:10 59.4 °F /  15.2 °C 52.9 °F /  11.6 °C 29.6 in /  1002.9 hPa NE 5 mph /  8.0 km/h 5 mph /  8.0 km/h 79 % 0 in /  0.0 mm
21:13 61.9 °F /  16.6 °C 53.4 °F /  11.9 °C 29.6 in /  1003.9 hPa East 10.4 mph /  16.7 km/h 10.4 mph /  16.7 km/h 74 % 0 in /  0.0 mm
21:19 61.7 °F /  16.5 °C 53.8 °F /  12.1 °C 29.6 in /  1003.9 hPa NE 9.2 mph /  14.8 km/h 9.2 mph /  14.8 km/h 75 % 0 in /  0.0 mm
21:20 59.2 °F /  15.1 °C 52.7 °F /  11.5 °C 29.6 in /  1001.9 hPa NE 3 mph /  4.8 km/h 6 mph /  9.7 km/h 79 % 0 in /  0.0 mm
21:24 61.5 °F /  16.4 °C 53.4 °F /  11.9 °C 29.6 in /  1003.9 hPa ENE 6.9 mph /  11.1 km/h 6.9 mph /  11.1 km/h 75 % 0 in /  0.0 mm
21:29 61.5 °F /  16.4 °C 54 °F /  12.2 °C 29.6 in /  1003.9 hPa East 6.9 mph /  11.1 km/h 6.9 mph /  11.1 km/h 76 % 0 in /  0.0 mm
21:30 59.2 °F /  15.1 °C 52.7 °F /  11.5 °C 29.6 in /  1001.9 hPa NE 3 mph /  4.8 km/h 4 mph /  6.4 km/h 79 % 0 in /  0.0 mm
21:34 61.5 °F /  16.4 °C 54 °F /  12.2 °C 29.6 in /  1003.9 hPa ENE 4.6 mph /  7.4 km/h 4.6 mph /  7.4 km/h 76 % 0 in /  0.0 mm
21:39 61.5 °F /  16.4 °C 54 °F /  12.2 °C 29.6 in /  1003.9 hPa ENE 7.1 mph /  11.4 km/h 7.1 mph /  11.4 km/h 76 % 0 in /  0.0 mm
21:40 59 °F /  15.0 °C 52.9 °F /  11.6 °C 29.6 in /  1001.9 hPa ENE 5 mph /  8.0 km/h 6 mph /  9.7 km/h 80 % 0 in /  0.0 mm
21:44 61.3 °F /  16.3 °C 54.1 °F /  12.3 °C 29.6 in /  1003.9 hPa ENE 6 mph /  9.7 km/h 6 mph /  9.7 km/h 77 % 0 in /  0.0 mm
21:49 61.3 °F /  16.3 °C 54.1 °F /  12.3 °C 29.6 in /  1003.9 hPa ENE 3.5 mph /  5.6 km/h 3.5 mph /  5.6 km/h 77 % 0 in /  0.0 mm
21:50 59 °F /  15.0 °C 52.9 °F /  11.6 °C 29.6 in /  1001.9 hPa NE 3 mph /  4.8 km/h 6 mph /  9.7 km/h 80 % 0 in /  0.0 mm
21:54 61.2 °F /  16.2 °C 54 °F /  12.2 °C 29.6 in /  1003.9 hPa NNE 5.8 mph /  9.3 km/h 5.8 mph /  9.3 km/h 77 % 0 in /  0.0 mm
21:59 61.2 °F /  16.2 °C 54.1 °F /  12.3 °C 29.6 in /  1003.9 hPa East 5.8 mph /  9.3 km/h 5.8 mph /  9.3 km/h 78 % 0 in /  0.0 mm
22:00 58.8 °F /  14.9 °C 52.7 °F /  11.5 °C 29.6 in /  1001.9 hPa NE 3 mph /  4.8 km/h 5 mph /  8.0 km/h 80 % 0 in /  0.0 mm
22:04 61 °F /  16.1 °C 54.1 °F /  12.3 °C 29.6 in /  1003.9 hPa East 4.6 mph /  7.4 km/h 4.6 mph /  7.4 km/h 78 % 0 in /  0.0 mm
22:10 61 °F /  16.1 °C 54.1 °F /  12.3 °C 29.6 in /  1003.9 hPa NNE 4.7 mph /  7.6 km/h 4.9 mph /  7.9 km/h 78 % 0 in /  0.0 mm
22:15 60.8 °F /  16.0 °C 54 °F /  12.2 °C 29.6 in /  1003.9 hPa NNE 4.6 mph /  7.4 km/h 4.6 mph /  7.4 km/h 78 % 0 in /  0.0 mm
22:20 60.8 °F /  16.0 °C 54 °F /  12.2 °C 29.6 in /  1003.9 hPa NNE 5.8 mph /  9.3 km/h 5.8 mph /  9.3 km/h 78 % 0 in /  0.0 mm
22:25 60.8 °F /  16.0 °C 54.1 °F /  12.3 °C 29.6 in /  1003.9 hPa ENE 3 mph /  4.8 km/h 6 mph /  9.7 km/h 79 % 0 in /  0.0 mm
22:30 60.8 °F /  16.0 °C 54.1 °F /  12.3 °C 29.6 in /  1003.9 hPa NNE 5.8 mph /  9.3 km/h 5.8 mph /  9.3 km/h 79 % 0 in /  0.0 mm
22:35 60.8 °F /  16.0 °C 54.1 °F /  12.3 °C 29.6 in /  1003.9 hPa ENE 3 mph /  4.8 km/h 10 mph /  16.1 km/h 79 % 0 in /  0.0 mm
22:40 60.6 °F /  15.9 °C 54.1 °F /  12.3 °C 29.6 in /  1003.9 hPa NE 6.9 mph /  11.1 km/h 6.9 mph /  11.1 km/h 79 % 0 in /  0.0 mm
22:45 60.6 °F /  15.9 °C 54.1 °F /  12.3 °C 29.6 in /  1003.9 hPa NE 4.6 mph /  7.4 km/h 4.6 mph /  7.4 km/h 79 % 0 in /  0.0 mm
22:50 60.6 °F /  15.9 °C 54.1 °F /  12.3 °C 29.6 in /  1003.9 hPa NE 3 mph /  4.8 km/h 6 mph /  9.7 km/h 79 % 0 in /  0.0 mm
22:55 60.6 °F /  15.9 °C 54.1 °F /  12.3 °C 29.6 in /  1003.9 hPa NE 5 mph /  8.0 km/h 6 mph /  9.7 km/h 79 % 0 in /  0.0 mm
23:00 60.6 °F /  15.9 °C 54.1 °F /  12.3 °C 29.6 in /  1003.9 hPa NE 2 mph /  3.2 km/h 6 mph /  9.7 km/h 79 % 0 in /  0.0 mm
23:05 60.6 °F /  15.9 °C 54.1 °F /  12.3 °C 29.6 in /  1003.9 hPa ESE 4.6 mph /  7.4 km/h 4.6 mph /  7.4 km/h 79 % 0 in /  0.0 mm
23:10 60.6 °F /  15.9 °C 54.1 °F /  12.3 °C 29.6 in /  1003.9 hPa ENE 6.9 mph /  11.1 km/h 6.9 mph /  11.1 km/h 79 % 0 in /  0.0 mm
23:15 60.6 °F /  15.9 °C 54.1 °F /  12.3 °C 29.6 in /  1003.9 hPa ESE 6.2 mph /  10.0 km/h 6.2 mph /  10.0 km/h 79 % 0 in /  0.0 mm
23:20 60.8 °F /  16.0 °C 54.1 °F /  12.3 °C 29.6 in /  1003.9 hPa ENE 5.8 mph /  9.3 km/h 5.8 mph /  9.3 km/h 79 % 0 in /  0.0 mm
23:26 60.8 °F /  16.0 °C 54.1 °F /  12.3 °C 29.6 in /  1003.9 hPa ENE 4.6 mph /  7.4 km/h 4.6 mph /  7.4 km/h 79 % 0 in /  0.0 mm
23:30 58.5 °F /  14.7 °C 52.5 °F /  11.4 °C 29.6 in /  1001.9 hPa ENE 3 mph /  4.8 km/h 4 mph /  6.4 km/h 81 % 0 in /  0.0 mm
23:31 60.8 °F /  16.0 °C 54.1 °F /  12.3 °C 29.6 in /  1003.9 hPa NE 6.2 mph /  10.0 km/h 6.2 mph /  10.0 km/h 79 % 0 in /  0.0 mm
23:36 60.6 °F /  15.9 °C 54.1 °F /  12.3 °C 29.6 in /  1003.9 hPa NNE 3.5 mph /  5.6 km/h 3.5 mph /  5.6 km/h 79 % 0 in /  0.0 mm
23:40 58.5 °F /  14.7 °C 52.5 °F /  11.4 °C 29.6 in /  1001.9 hPa ENE 3 mph /  4.8 km/h 4 mph /  6.4 km/h 81 % 0 in /  0.0 mm
23:41 60.6 °F /  15.9 °C 54.1 °F /  12.3 °C 29.6 in /  1003.9 hPa NNE 5.8 mph /  9.3 km/h 5.8 mph /  9.3 km/h 79 % 0 in /  0.0 mm
23:46 60.4 °F /  15.8 °C 54 °F /  12.2 °C 29.6 in /  1003.9 hPa NNE 6.9 mph /  11.1 km/h 6.9 mph /  11.1 km/h 79 % 0 in /  0.0 mm
23:50 58.5 °F /  14.7 °C 52.5 °F /  11.4 °C 29.6 in /  1001.9 hPa ENE 3 mph /  4.8 km/h 4 mph /  6.4 km/h 81 % 0 in /  0.0 mm
23:51 60.4 °F /  15.8 °C 54 °F /  12.2 °C 29.6 in /  1003.9 hPa NNE 4 mph /  6.4 km/h 4 mph /  6.4 km/h 79 % 0 in /  0.0 mm
23:57 60.4 °F /  15.8 °C 54 °F /  12.2 °C 29.6 in /  1003.9 hPa East 4.7 mph /  7.6 km/h 4.7 mph /  7.6 km/h 79 % 0 in /  0.0 mm
Meteo Sesrovires
Elogis d' Weather Underground - 3.5 mb

Guio original per  Jim McMurry - jmcmurry@mwt.net Adaptat per a la plantilla per  Wim van der Kuil - Leuven-Template.eu

Trobareu la nostra informacio del temps tambe a:

Weather Underground

AWEKAS